sensor_id;sensor_type;location;lat;lon;timestamp;temperature;humidity
8172;DHT22;4127;47.908;10.850;2023-01-31T00:01:28;1.00;99.90
8172;DHT22;4127;47.908;10.850;2023-01-31T00:03:58;0.90;99.90
8172;DHT22;4127;47.908;10.850;2023-01-31T00:06:37;0.90;99.90
8172;DHT22;4127;47.908;10.850;2023-01-31T00:09:05;0.90;99.90
8172;DHT22;4127;47.908;10.850;2023-01-31T00:11:33;0.90;99.90
8172;DHT22;4127;47.908;10.850;2023-01-31T00:14:01;0.90;99.90
8172;DHT22;4127;47.908;10.850;2023-01-31T00:16:28;0.90;99.90
8172;DHT22;4127;47.908;10.850;2023-01-31T00:18:55;0.80;99.90
8172;DHT22;4127;47.908;10.850;2023-01-31T00:21:24;0.80;99.90
8172;DHT22;4127;47.908;10.850;2023-01-31T00:23:52;0.80;99.90
8172;DHT22;4127;47.908;10.850;2023-01-31T00:26:20;0.70;99.90
8172;DHT22;4127;47.908;10.850;2023-01-31T00:28:48;0.80;99.90
8172;DHT22;4127;47.908;10.850;2023-01-31T00:31:16;0.80;99.90
8172;DHT22;4127;47.908;10.850;2023-01-31T00:33:45;0.80;99.90
8172;DHT22;4127;47.908;10.850;2023-01-31T00:45:07;0.80;99.90
8172;DHT22;4127;47.908;10.850;2023-01-31T00:47:34;0.90;99.90
8172;DHT22;4127;47.908;10.850;2023-01-31T00:50:02;0.90;99.90
8172;DHT22;4127;47.908;10.850;2023-01-31T00:52:29;0.80;99.90
8172;DHT22;4127;47.908;10.850;2023-01-31T00:54:56;0.90;99.90
8172;DHT22;4127;47.908;10.850;2023-01-31T00:57:23;0.90;99.90
8172;DHT22;4127;47.908;10.850;2023-01-31T00:59:50;0.90;99.90
8172;DHT22;4127;47.908;10.850;2023-01-31T01:05:18;0.80;99.90
8172;DHT22;4127;47.908;10.850;2023-01-31T01:15:45;0.80;99.90
8172;DHT22;4127;47.908;10.850;2023-01-31T01:18:11;0.80;99.90
8172;DHT22;4127;47.908;10.850;2023-01-31T01:20:38;0.80;99.90
8172;DHT22;4127;47.908;10.850;2023-01-31T01:23:05;0.80;99.90
8172;DHT22;4127;47.908;10.850;2023-01-31T01:25:40;0.80;99.90
8172;DHT22;4127;47.908;10.850;2023-01-31T01:28:07;0.80;99.90
8172;DHT22;4127;47.908;10.850;2023-01-31T01:30:36;0.80;99.90
8172;DHT22;4127;47.908;10.850;2023-01-31T01:33:03;0.80;99.90
8172;DHT22;4127;47.908;10.850;2023-01-31T01:35:30;0.80;99.90
8172;DHT22;4127;47.908;10.850;2023-01-31T01:37:57;0.80;99.90
8172;DHT22;4127;47.908;10.850;2023-01-31T01:40:23;0.80;99.90
8172;DHT22;4127;47.908;10.850;2023-01-31T01:42:50;0.80;99.90
8172;DHT22;4127;47.908;10.850;2023-01-31T01:48:05;0.80;99.90
8172;DHT22;4127;47.908;10.850;2023-01-31T02:01:32;0.70;99.90
8172;DHT22;4127;47.908;10.850;2023-01-31T02:07:00;0.70;99.90
8172;DHT22;4127;47.908;10.850;2023-01-31T02:14:52;0.60;99.90
8172;DHT22;4127;47.908;10.850;2023-01-31T02:22:32;0.50;99.90
8172;DHT22;4127;47.908;10.850;2023-01-31T02:33:43;0.40;99.90
8172;DHT22;4127;47.908;10.850;2023-01-31T02:41:51;0.30;99.90
8172;DHT22;4127;47.908;10.850;2023-01-31T02:49:58;0.20;99.90
8172;DHT22;4127;47.908;10.850;2023-01-31T02:52:33;0.20;99.90
8172;DHT22;4127;47.908;10.850;2023-01-31T03:03:23;0.10;99.90
8172;DHT22;4127;47.908;10.850;2023-01-31T03:06:10;0.10;99.90
8172;DHT22;4127;47.908;10.850;2023-01-31T03:08:41;0.00;99.90
8172;DHT22;4127;47.908;10.850;2023-01-31T03:11:09;0.00;99.90
8172;DHT22;4127;47.908;10.850;2023-01-31T03:16:34;0.00;99.90
8172;DHT22;4127;47.908;10.850;2023-01-31T03:19:37;0.00;99.90
8172;DHT22;4127;47.908;10.850;2023-01-31T03:22:10;0.00;99.90
8172;DHT22;4127;47.908;10.850;2023-01-31T03:24:38;0.00;99.90
8172;DHT22;4127;47.908;10.850;2023-01-31T03:27:06;0.10;99.90
8172;DHT22;4127;47.908;10.850;2023-01-31T03:29:35;0.10;99.90
8172;DHT22;4127;47.908;10.850;2023-01-31T03:32:15;0.10;99.90
8172;DHT22;4127;47.908;10.850;2023-01-31T03:34:45;0.20;99.90
8172;DHT22;4127;47.908;10.850;2023-01-31T03:42:25;0.20;99.90
8172;DHT22;4127;47.908;10.850;2023-01-31T03:45:14;0.20;99.90
8172;DHT22;4127;47.908;10.850;2023-01-31T03:47:47;0.30;99.90
8172;DHT22;4127;47.908;10.850;2023-01-31T03:53:15;0.20;99.90
8172;DHT22;4127;47.908;10.850;2023-01-31T03:55:48;0.20;99.90
8172;DHT22;4127;47.908;10.850;2023-01-31T03:58:18;0.20;99.90
8172;DHT22;4127;47.908;10.850;2023-01-31T04:00:47;0.10;99.90
8172;DHT22;4127;47.908;10.850;2023-01-31T04:05:50;0.10;99.90
8172;DHT22;4127;47.908;10.850;2023-01-31T04:08:17;0.00;99.90
8172;DHT22;4127;47.908;10.850;2023-01-31T04:10:44;0.00;99.90
8172;DHT22;4127;47.908;10.850;2023-01-31T04:13:11;0.00;99.90
8172;DHT22;4127;47.908;10.850;2023-01-31T04:26:31;-0.10;99.90
8172;DHT22;4127;47.908;10.850;2023-01-31T04:31:40;-0.20;99.90
8172;DHT22;4127;47.908;10.850;2023-01-31T04:45:54;-0.10;99.90
8172;DHT22;4127;47.908;10.850;2023-01-31T05:02:40;-0.20;99.90
8172;DHT22;4127;47.908;10.850;2023-01-31T05:10:17;-0.10;99.90
8172;DHT22;4127;47.908;10.850;2023-01-31T05:18:08;-0.20;99.90
8172;DHT22;4127;47.908;10.850;2023-01-31T05:23:00;-0.20;99.90
8172;DHT22;4127;47.908;10.850;2023-01-31T05:38:49;-0.20;99.90
8172;DHT22;4127;47.908;10.850;2023-01-31T05:43:50;-0.30;99.90
8172;DHT22;4127;47.908;10.850;2023-01-31T05:48:59;-0.30;99.90
8172;DHT22;4127;47.908;10.850;2023-01-31T05:51:26;-0.30;99.90
8172;DHT22;4127;47.908;10.850;2023-01-31T05:53:53;-0.30;99.90
8172;DHT22;4127;47.908;10.850;2023-01-31T05:58:50;-0.30;99.90
8172;DHT22;4127;47.908;10.850;2023-01-31T06:14:50;-0.30;99.90
8172;DHT22;4127;47.908;10.850;2023-01-31T06:27:47;-0.40;99.90
8172;DHT22;4127;47.908;10.850;2023-01-31T06:30:14;-0.50;99.90
8172;DHT22;4127;47.908;10.850;2023-01-31T06:32:41;-0.40;99.90
8172;DHT22;4127;47.908;10.850;2023-01-31T06:51:27;-0.50;99.90
8172;DHT22;4127;47.908;10.850;2023-01-31T06:53:54;-0.50;99.90
8172;DHT22;4127;47.908;10.850;2023-01-31T06:56:22;-0.50;99.90
8172;DHT22;4127;47.908;10.850;2023-01-31T06:58:49;-0.50;99.90
8172;DHT22;4127;47.908;10.850;2023-01-31T07:01:16;-0.50;99.90
8172;DHT22;4127;47.908;10.850;2023-01-31T07:03:45;-0.50;99.90
8172;DHT22;4127;47.908;10.850;2023-01-31T07:06:11;-0.50;99.90
8172;DHT22;4127;47.908;10.850;2023-01-31T07:08:39;-0.50;99.90
8172;DHT22;4127;47.908;10.850;2023-01-31T07:11:06;-0.50;99.90
8172;DHT22;4127;47.908;10.850;2023-01-31T07:13:32;-0.50;99.90
8172;DHT22;4127;47.908;10.850;2023-01-31T07:15:59;-0.50;99.90
8172;DHT22;4127;47.908;10.850;2023-01-31T07:18:26;-0.40;99.90
8172;DHT22;4127;47.908;10.850;2023-01-31T07:20:53;-0.40;99.90
8172;DHT22;4127;47.908;10.850;2023-01-31T07:23:20;-0.30;99.90
8172;DHT22;4127;47.908;10.850;2023-01-31T07:25:46;-0.30;99.90
8172;DHT22;4127;47.908;10.850;2023-01-31T07:41:52;-0.10;99.90
8172;DHT22;4127;47.908;10.850;2023-01-31T07:44:18;0.00;99.90
8172;DHT22;4127;47.908;10.850;2023-01-31T07:46:45;0.00;99.90
8172;DHT22;4127;47.908;10.850;2023-01-31T07:49:17;0.00;99.90
8172;DHT22;4127;47.908;10.850;2023-01-31T07:51:43;0.10;99.90
8172;DHT22;4127;47.908;10.850;2023-01-31T07:54:11;0.10;99.90
8172;DHT22;4127;47.908;10.850;2023-01-31T07:56:38;0.20;99.90
8172;DHT22;4127;47.908;10.850;2023-01-31T07:59:04;0.20;99.90
8172;DHT22;4127;47.908;10.850;2023-01-31T08:01:31;0.30;99.90
8172;DHT22;4127;47.908;10.850;2023-01-31T08:04:17;0.30;99.90
8172;DHT22;4127;47.908;10.850;2023-01-31T08:06:48;0.50;99.90
8172;DHT22;4127;47.908;10.850;2023-01-31T08:09:16;0.60;99.90
8172;DHT22;4127;47.908;10.850;2023-01-31T08:33:09;1.00;99.90
8172;DHT22;4127;47.908;10.850;2023-01-31T08:38:05;1.20;99.90
8172;DHT22;4127;47.908;10.850;2023-01-31T08:40:42;1.20;99.90
8172;DHT22;4127;47.908;10.850;2023-01-31T08:43:08;1.30;99.90
8172;DHT22;4127;47.908;10.850;2023-01-31T08:45:35;1.30;99.90
8172;DHT22;4127;47.908;10.850;2023-01-31T08:48:03;1.50;99.90
8172;DHT22;4127;47.908;10.850;2023-01-31T08:50:31;1.70;99.90
8172;DHT22;4127;47.908;10.850;2023-01-31T08:53:01;1.60;99.90
8172;DHT22;4127;47.908;10.850;2023-01-31T08:55:29;1.60;99.90
8172;DHT22;4127;47.908;10.850;2023-01-31T08:57:56;1.60;99.90
8172;DHT22;4127;47.908;10.850;2023-01-31T09:00:26;1.60;99.90
8172;DHT22;4127;47.908;10.850;2023-01-31T09:02:53;1.70;99.90
8172;DHT22;4127;47.908;10.850;2023-01-31T09:05:20;1.70;99.90
8172;DHT22;4127;47.908;10.850;2023-01-31T09:07:47;1.90;99.90
8172;DHT22;4127;47.908;10.850;2023-01-31T09:10:14;2.00;99.90
8172;DHT22;4127;47.908;10.850;2023-01-31T09:12:41;1.90;99.90
8172;DHT22;4127;47.908;10.850;2023-01-31T09:15:08;1.90;99.90
8172;DHT22;4127;47.908;10.850;2023-01-31T09:20:00;1.90;99.90
8172;DHT22;4127;47.908;10.850;2023-01-31T09:22:32;2.00;99.90
8172;DHT22;4127;47.908;10.850;2023-01-31T09:25:00;2.30;99.90
8172;DHT22;4127;47.908;10.850;2023-01-31T09:27:28;2.30;99.90
8172;DHT22;4127;47.908;10.850;2023-01-31T09:29:55;2.10;99.90
8172;DHT22;4127;47.908;10.850;2023-01-31T09:32:22;1.80;99.90
8172;DHT22;4127;47.908;10.850;2023-01-31T09:34:48;1.70;99.90
8172;DHT22;4127;47.908;10.850;2023-01-31T09:37:15;1.80;99.90
8172;DHT22;4127;47.908;10.850;2023-01-31T09:39:42;2.00;99.90
8172;DHT22;4127;47.908;10.850;2023-01-31T09:42:37;2.20;99.90
8172;DHT22;4127;47.908;10.850;2023-01-31T09:45:40;2.40;99.90
8172;DHT22;4127;47.908;10.850;2023-01-31T09:48:01;2.50;99.90
8172;DHT22;4127;47.908;10.850;2023-01-31T09:51:01;2.50;99.90
8172;DHT22;4127;47.908;10.850;2023-01-31T09:53:23;2.50;99.90
8172;DHT22;4127;47.908;10.850;2023-01-31T09:58:57;2.80;99.90
8172;DHT22;4127;47.908;10.850;2023-01-31T10:01:29;2.80;99.90
8172;DHT22;4127;47.908;10.850;2023-01-31T10:07:35;2.70;99.90
8172;DHT22;4127;47.908;10.850;2023-01-31T10:11:00;2.50;99.90
8172;DHT22;4127;47.908;10.850;2023-01-31T10:13:37;2.60;99.90
8172;DHT22;4127;47.908;10.850;2023-01-31T10:18:35;2.70;99.90
8172;DHT22;4127;47.908;10.850;2023-01-31T10:21:11;2.90;99.90
8172;DHT22;4127;47.908;10.850;2023-01-31T10:23:42;3.10;99.90
8172;DHT22;4127;47.908;10.850;2023-01-31T10:26:17;3.20;99.90
8172;DHT22;4127;47.908;10.850;2023-01-31T10:29:00;2.90;99.90
8172;DHT22;4127;47.908;10.850;2023-01-31T10:31:40;2.90;99.90
8172;DHT22;4127;47.908;10.850;2023-01-31T10:34:33;3.30;99.90
8172;DHT22;4127;47.908;10.850;2023-01-31T11:01:30;2.90;99.90
8172;DHT22;4127;47.908;10.850;2023-01-31T11:09:04;3.10;99.90
8172;DHT22;4127;47.908;10.850;2023-01-31T11:11:31;3.10;99.90
8172;DHT22;4127;47.908;10.850;2023-01-31T11:14:04;3.20;99.90
8172;DHT22;4127;47.908;10.850;2023-01-31T11:19:36;3.10;99.90
8172;DHT22;4127;47.908;10.850;2023-01-31T11:22:04;2.90;99.90
8172;DHT22;4127;47.908;10.850;2023-01-31T11:35:34;3.00;99.90
8172;DHT22;4127;47.908;10.850;2023-01-31T11:48:42;3.10;99.90
8172;DHT22;4127;47.908;10.850;2023-01-31T12:01:55;3.10;99.90
8172;DHT22;4127;47.908;10.850;2023-01-31T12:07:23;3.30;99.90
8172;DHT22;4127;47.908;10.850;2023-01-31T12:09:50;3.20;99.90
8172;DHT22;4127;47.908;10.850;2023-01-31T12:12:27;3.20;99.90
8172;DHT22;4127;47.908;10.850;2023-01-31T12:15:12;3.10;99.90
8172;DHT22;4127;47.908;10.850;2023-01-31T12:17:44;3.10;99.90
8172;DHT22;4127;47.908;10.850;2023-01-31T12:20:36;3.10;99.90
8172;DHT22;4127;47.908;10.850;2023-01-31T12:34:05;3.30;99.90
8172;DHT22;4127;47.908;10.850;2023-01-31T12:37:44;3.20;99.90
8172;DHT22;4127;47.908;10.850;2023-01-31T12:42:58;3.30;99.90
8172;DHT22;4127;47.908;10.850;2023-01-31T12:45:55;3.30;99.90
8172;DHT22;4127;47.908;10.850;2023-01-31T12:51:05;3.50;99.90
8172;DHT22;4127;47.908;10.850;2023-01-31T13:10:27;3.70;99.90
8172;DHT22;4127;47.908;10.850;2023-01-31T13:12:57;3.80;99.90
8172;DHT22;4127;47.908;10.850;2023-01-31T13:15:39;3.60;99.90
8172;DHT22;4127;47.908;10.850;2023-01-31T13:18:09;3.60;99.90
8172;DHT22;4127;47.908;10.850;2023-01-31T13:20:59;3.60;99.90
8172;DHT22;4127;47.908;10.850;2023-01-31T13:23:38;3.70;99.90
8172;DHT22;4127;47.908;10.850;2023-01-31T13:26:47;3.80;99.90
8172;DHT22;4127;47.908;10.850;2023-01-31T13:29:27;3.80;99.90
8172;DHT22;4127;47.908;10.850;2023-01-31T13:32:05;3.70;99.90
8172;DHT22;4127;47.908;10.850;2023-01-31T13:34:41;3.70;99.90
8172;DHT22;4127;47.908;10.850;2023-01-31T13:37:16;3.80;99.90
8172;DHT22;4127;47.908;10.850;2023-01-31T13:42:18;3.70;99.90
8172;DHT22;4127;47.908;10.850;2023-01-31T13:44:45;3.60;99.90
8172;DHT22;4127;47.908;10.850;2023-01-31T13:47:39;3.60;99.90
8172;DHT22;4127;47.908;10.850;2023-01-31T13:50:28;3.60;99.90
8172;DHT22;4127;47.908;10.850;2023-01-31T13:52:57;3.60;99.90
8172;DHT22;4127;47.908;10.850;2023-01-31T13:55:38;3.60;99.90
8172;DHT22;4127;47.908;10.850;2023-01-31T13:58:07;3.60;99.90
8172;DHT22;4127;47.908;10.850;2023-01-31T14:00:41;3.50;99.90
8172;DHT22;4127;47.908;10.850;2023-01-31T14:03:17;3.50;99.90
8172;DHT22;4127;47.908;10.850;2023-01-31T14:10:50;3.30;99.90
8172;DHT22;4127;47.908;10.850;2023-01-31T14:13:47;3.30;99.90
8172;DHT22;4127;47.908;10.850;2023-01-31T14:16:35;3.30;99.90
8172;DHT22;4127;47.908;10.850;2023-01-31T14:19:04;3.30;99.90
8172;DHT22;4127;47.908;10.850;2023-01-31T14:24:02;3.20;99.90
8172;DHT22;4127;47.908;10.850;2023-01-31T14:29:09;3.20;99.90
8172;DHT22;4127;47.908;10.850;2023-01-31T14:31:41;3.10;99.90
8172;DHT22;4127;47.908;10.850;2023-01-31T14:34:38;3.10;99.90
8172;DHT22;4127;47.908;10.850;2023-01-31T14:37:29;3.10;99.90
8172;DHT22;4127;47.908;10.850;2023-01-31T14:40:15;3.10;99.90
8172;DHT22;4127;47.908;10.850;2023-01-31T14:56:21;3.00;99.90
8172;DHT22;4127;47.908;10.850;2023-01-31T14:58:53;3.00;99.90
8172;DHT22;4127;47.908;10.850;2023-01-31T15:01:21;3.00;99.90
8172;DHT22;4127;47.908;10.850;2023-01-31T15:03:57;3.00;99.90
8172;DHT22;4127;47.908;10.850;2023-01-31T15:06:25;3.00;99.90
8172;DHT22;4127;47.908;10.850;2023-01-31T15:11:52;3.00;99.90
8172;DHT22;4127;47.908;10.850;2023-01-31T15:14:39;3.00;99.90
8172;DHT22;4127;47.908;10.850;2023-01-31T15:20:17;2.90;99.90
8172;DHT22;4127;47.908;10.850;2023-01-31T15:22:46;2.90;99.90
8172;DHT22;4127;47.908;10.850;2023-01-31T15:25:42;2.90;99.90
8172;DHT22;4127;47.908;10.850;2023-01-31T15:28:14;2.90;99.90
8172;DHT22;4127;47.908;10.850;2023-01-31T15:30:42;2.90;99.90
8172;DHT22;4127;47.908;10.850;2023-01-31T15:33:24;2.80;99.90
8172;DHT22;4127;47.908;10.850;2023-01-31T15:38:50;2.80;99.90
8172;DHT22;4127;47.908;10.850;2023-01-31T15:41:38;2.80;99.90
8172;DHT22;4127;47.908;10.850;2023-01-31T15:44:23;2.80;99.90
8172;DHT22;4127;47.908;10.850;2023-01-31T15:46:52;2.70;99.90
8172;DHT22;4127;47.908;10.850;2023-01-31T15:52:12;2.70;99.90
8172;DHT22;4127;47.908;10.850;2023-01-31T15:54:53;2.70;99.90
8172;DHT22;4127;47.908;10.850;2023-01-31T15:57:24;2.70;99.90
8172;DHT22;4127;47.908;10.850;2023-01-31T15:59:52;2.70;99.90
8172;DHT22;4127;47.908;10.850;2023-01-31T16:02:24;2.80;99.90
8172;DHT22;4127;47.908;10.850;2023-01-31T16:04:51;2.70;99.90
8172;DHT22;4127;47.908;10.850;2023-01-31T16:07:20;2.70;99.90
8172;DHT22;4127;47.908;10.850;2023-01-31T16:09:47;2.70;99.90
8172;DHT22;4127;47.908;10.850;2023-01-31T16:12:15;2.60;99.90
8172;DHT22;4127;47.908;10.850;2023-01-31T16:14:44;2.70;99.90
8172;DHT22;4127;47.908;10.850;2023-01-31T16:17:13;2.70;99.90
8172;DHT22;4127;47.908;10.850;2023-01-31T16:19:40;2.60;99.90
8172;DHT22;4127;47.908;10.850;2023-01-31T16:22:27;2.70;99.90
8172;DHT22;4127;47.908;10.850;2023-01-31T16:25:02;2.60;99.90
8172;DHT22;4127;47.908;10.850;2023-01-31T16:27:36;2.70;99.90
8172;DHT22;4127;47.908;10.850;2023-01-31T16:30:03;2.70;99.90
8172;DHT22;4127;47.908;10.850;2023-01-31T16:32:33;2.70;99.90
8172;DHT22;4127;47.908;10.850;2023-01-31T16:35:05;2.70;99.90
8172;DHT22;4127;47.908;10.850;2023-01-31T16:37:35;2.70;99.90
8172;DHT22;4127;47.908;10.850;2023-01-31T16:40:23;2.70;99.90
8172;DHT22;4127;47.908;10.850;2023-01-31T16:43:24;2.70;99.90
8172;DHT22;4127;47.908;10.850;2023-01-31T16:45:58;2.70;99.90
8172;DHT22;4127;47.908;10.850;2023-01-31T16:48:26;2.70;99.90
8172;DHT22;4127;47.908;10.850;2023-01-31T16:50:55;2.70;99.90
8172;DHT22;4127;47.908;10.850;2023-01-31T16:58:56;2.80;99.90
8172;DHT22;4127;47.908;10.850;2023-01-31T17:01:25;2.80;99.90
8172;DHT22;4127;47.908;10.850;2023-01-31T17:04:18;2.80;99.90
8172;DHT22;4127;47.908;10.850;2023-01-31T17:07:01;2.70;99.90
8172;DHT22;4127;47.908;10.850;2023-01-31T17:09:28;2.80;99.90
8172;DHT22;4127;47.908;10.850;2023-01-31T17:11:55;2.70;99.90
8172;DHT22;4127;47.908;10.850;2023-01-31T17:14:22;2.70;99.90
8172;DHT22;4127;47.908;10.850;2023-01-31T17:16:50;2.80;99.90
8172;DHT22;4127;47.908;10.850;2023-01-31T17:19:17;2.80;99.90
8172;DHT22;4127;47.908;10.850;2023-01-31T17:21:44;2.70;99.90
8172;DHT22;4127;47.908;10.850;2023-01-31T17:24:13;2.80;99.90
8172;DHT22;4127;47.908;10.850;2023-01-31T17:26:40;2.70;99.90
8172;DHT22;4127;47.908;10.850;2023-01-31T17:29:07;2.70;99.90
8172;DHT22;4127;47.908;10.850;2023-01-31T17:31:34;2.80;99.90
8172;DHT22;4127;47.908;10.850;2023-01-31T17:34:01;2.80;99.90
8172;DHT22;4127;47.908;10.850;2023-01-31T17:36:28;2.80;99.90
8172;DHT22;4127;47.908;10.850;2023-01-31T17:38:55;2.80;99.90
8172;DHT22;4127;47.908;10.850;2023-01-31T17:41:22;2.80;99.90
8172;DHT22;4127;47.908;10.850;2023-01-31T17:43:50;2.80;99.90
8172;DHT22;4127;47.908;10.850;2023-01-31T17:46:17;2.80;99.90
8172;DHT22;4127;47.908;10.850;2023-01-31T17:48:45;2.80;99.90
8172;DHT22;4127;47.908;10.850;2023-01-31T17:51:12;2.80;99.90
8172;DHT22;4127;47.908;10.850;2023-01-31T17:53:39;2.80;99.90
8172;DHT22;4127;47.908;10.850;2023-01-31T17:56:16;2.80;99.90
8172;DHT22;4127;47.908;10.850;2023-01-31T17:58:43;2.80;99.90
8172;DHT22;4127;47.908;10.850;2023-01-31T18:01:10;2.70;99.90
8172;DHT22;4127;47.908;10.850;2023-01-31T18:03:40;2.70;99.90
8172;DHT22;4127;47.908;10.850;2023-01-31T18:06:07;2.70;99.90
8172;DHT22;4127;47.908;10.850;2023-01-31T18:08:34;2.70;99.90
8172;DHT22;4127;47.908;10.850;2023-01-31T18:11:03;2.80;99.90
8172;DHT22;4127;47.908;10.850;2023-01-31T18:13:30;2.80;99.90
8172;DHT22;4127;47.908;10.850;2023-01-31T18:16:11;2.80;99.90
8172;DHT22;4127;47.908;10.850;2023-01-31T18:18:39;2.80;99.90
8172;DHT22;4127;47.908;10.850;2023-01-31T18:21:15;2.80;99.90
8172;DHT22;4127;47.908;10.850;2023-01-31T18:23:42;2.80;99.90
8172;DHT22;4127;47.908;10.850;2023-01-31T18:26:10;2.80;99.90
8172;DHT22;4127;47.908;10.850;2023-01-31T18:28:36;2.90;99.90
8172;DHT22;4127;47.908;10.850;2023-01-31T18:31:05;2.80;99.90
8172;DHT22;4127;47.908;10.850;2023-01-31T18:33:36;2.80;99.90
8172;DHT22;4127;47.908;10.850;2023-01-31T18:36:03;2.80;99.90
8172;DHT22;4127;47.908;10.850;2023-01-31T18:38:31;2.80;99.90
8172;DHT22;4127;47.908;10.850;2023-01-31T18:40:58;2.80;99.90
8172;DHT22;4127;47.908;10.850;2023-01-31T18:43:28;2.80;99.90
8172;DHT22;4127;47.908;10.850;2023-01-31T18:45:56;2.80;99.90
8172;DHT22;4127;47.908;10.850;2023-01-31T18:48:22;2.80;99.90
8172;DHT22;4127;47.908;10.850;2023-01-31T18:50:49;2.80;99.90
8172;DHT22;4127;47.908;10.850;2023-01-31T18:53:16;2.70;99.90
8172;DHT22;4127;47.908;10.850;2023-01-31T18:55:43;2.80;99.90
8172;DHT22;4127;47.908;10.850;2023-01-31T18:58:09;2.80;99.90
8172;DHT22;4127;47.908;10.850;2023-01-31T19:00:36;2.90;99.90
8172;DHT22;4127;47.908;10.850;2023-01-31T19:03:03;2.90;99.90
8172;DHT22;4127;47.908;10.850;2023-01-31T19:05:29;2.90;99.90
8172;DHT22;4127;47.908;10.850;2023-01-31T19:10:43;3.00;99.90
8172;DHT22;4127;47.908;10.850;2023-01-31T19:21:27;3.00;99.90
8172;DHT22;4127;47.908;10.850;2023-01-31T19:29:00;2.90;99.90
8172;DHT22;4127;47.908;10.850;2023-01-31T19:34:09;2.90;99.90
8172;DHT22;4127;47.908;10.850;2023-01-31T19:42:00;2.90;99.90
8172;DHT22;4127;47.908;10.850;2023-01-31T19:46:53;2.90;99.90
8172;DHT22;4127;47.908;10.850;2023-01-31T19:49:20;2.90;99.90
8172;DHT22;4127;47.908;10.850;2023-01-31T19:57:32;2.90;99.90
8172;DHT22;4127;47.908;10.850;2023-01-31T20:05:33;2.80;99.90
8172;DHT22;4127;47.908;10.850;2023-01-31T20:13:20;2.70;99.90
8172;DHT22;4127;47.908;10.850;2023-01-31T20:21:15;2.60;99.90
8172;DHT22;4127;47.908;10.850;2023-01-31T20:35:18;2.50;99.90
8172;DHT22;4127;47.908;10.850;2023-01-31T20:54:23;2.40;99.90
8172;DHT22;4127;47.908;10.850;2023-01-31T21:10:29;2.30;99.90
8172;DHT22;4127;47.908;10.850;2023-01-31T21:18:03;2.30;99.90
8172;DHT22;4127;47.908;10.850;2023-01-31T21:42:15;2.30;99.90
8172;DHT22;4127;47.908;10.850;2023-01-31T21:44:46;2.30;99.90
8172;DHT22;4127;47.908;10.850;2023-01-31T21:52:37;2.30;99.90
8172;DHT22;4127;47.908;10.850;2023-01-31T22:11:46;2.40;99.90
8172;DHT22;4127;47.908;10.850;2023-01-31T22:25:21;2.40;99.90
8172;DHT22;4127;47.908;10.850;2023-01-31T22:30:14;2.40;99.90
8172;DHT22;4127;47.908;10.850;2023-01-31T22:51:46;2.60;99.90
8172;DHT22;4127;47.908;10.850;2023-01-31T22:56:58;2.60;99.90
8172;DHT22;4127;47.908;10.850;2023-01-31T23:29:47;2.60;99.90
8172;DHT22;4127;47.908;10.850;2023-01-31T23:56:32;2.50;99.90
